createdAt,value
2023-06-30T00:01:00.030Z,101681.44
2023-06-30T00:03:27.268Z,101672.94
2023-06-30T00:05:54.353Z,101677.16
2023-06-30T00:08:21.237Z,101677.63
2023-06-30T00:10:48.174Z,101675.66
2023-06-30T00:13:15.125Z,101675.16
2023-06-30T00:15:42.036Z,101672.75
2023-06-30T00:18:09.037Z,101671.84
2023-06-30T00:20:35.992Z,101664.94
2023-06-30T00:23:03.004Z,101666.09
2023-06-30T00:25:29.854Z,101664.47
2023-06-30T00:27:56.817Z,101659.47
2023-06-30T00:30:23.704Z,101664.25
2023-06-30T00:32:50.900Z,101664.03
2023-06-30T00:35:19.268Z,101668.72
2023-06-30T00:37:46.307Z,101660.66
2023-06-30T00:40:15.403Z,101657.75
2023-06-30T00:42:42.329Z,101656.94
2023-06-30T00:45:09.845Z,101650.78
2023-06-30T00:47:36.877Z,101645.44
2023-06-30T00:50:04.400Z,101644.97
2023-06-30T00:52:31.455Z,101645.09
2023-06-30T00:54:58.346Z,101645.47
2023-06-30T00:57:25.313Z,101640.59
2023-06-30T00:59:52.290Z,101638.63
2023-06-30T01:02:24.229Z,101641.84
2023-06-30T01:04:59.324Z,101645.22
2023-06-30T01:07:40.679Z,101644.28
2023-06-30T01:10:13.066Z,101641.50
2023-06-30T01:12:39.989Z,101645.81
2023-06-30T01:15:10.477Z,101644.53
2023-06-30T01:17:42.781Z,101640.47
2023-06-30T01:20:12.790Z,101642.81
2023-06-30T01:22:52.593Z,101645.84
2023-06-30T01:25:28.383Z,101638.72
2023-06-30T01:27:57.063Z,101644.06
2023-06-30T01:30:25.288Z,101645.59
2023-06-30T01:32:56.186Z,101653.06
2023-06-30T01:35:24.321Z,101649.91
2023-06-30T01:37:53.314Z,101650.25
2023-06-30T01:40:21.095Z,101645.84
2023-06-30T01:42:48.781Z,101645.00
2023-06-30T01:45:17.131Z,101632.34
2023-06-30T01:47:44.983Z,101629.91
2023-06-30T01:50:12.157Z,101637.47
2023-06-30T01:52:39.141Z,101633.84
2023-06-30T01:55:06.464Z,101629.09
2023-06-30T01:57:33.336Z,101639.56
2023-06-30T02:00:00.409Z,101638.63
2023-06-30T02:02:27.519Z,101636.75
2023-06-30T02:04:54.595Z,101635.94
2023-06-30T02:07:22.116Z,101639.44
2023-06-30T02:09:49.371Z,101639.34
2023-06-30T02:12:17.137Z,101641.78
2023-06-30T02:14:44.155Z,101627.22
2023-06-30T02:17:12.090Z,101637.81
2023-06-30T02:19:38.996Z,101636.22
2023-06-30T02:22:06.287Z,101632.94
2023-06-30T02:24:33.439Z,101629.81
2023-06-30T02:27:01.072Z,101633.06
2023-06-30T02:29:32.406Z,101629.81
2023-06-30T02:31:59.310Z,101636.22
2023-06-30T02:34:26.398Z,101627.34
2023-06-30T02:36:54.113Z,101635.72
2023-06-30T02:39:21.133Z,101631.31
2023-06-30T02:41:48.122Z,101629.34
2023-06-30T02:44:15.659Z,101627.34
2023-06-30T02:46:42.836Z,101632.34
2023-06-30T02:49:09.720Z,101633.28
2023-06-30T02:51:36.640Z,101633.75
2023-06-30T02:54:04.740Z,101632.38
2023-06-30T02:56:33.674Z,101634.56
2023-06-30T02:59:01.071Z,101618.97
2023-06-30T03:01:27.994Z,101622.84
2023-06-30T03:03:55.311Z,101626.56
2023-06-30T03:06:26.386Z,101629.94
2023-06-30T03:08:53.257Z,101624.94
2023-06-30T03:11:23.088Z,101634.25
2023-06-30T03:13:50.764Z,101626.94
2023-06-30T03:16:17.807Z,101628.41
2023-06-30T03:18:44.738Z,101621.34
2023-06-30T03:21:11.720Z,101625.75
2023-06-30T03:23:38.706Z,101626.94
2023-06-30T03:26:05.661Z,101627.03
2023-06-30T03:28:32.537Z,101630.41
2023-06-30T03:31:00.213Z,101628.06
2023-06-30T03:33:27.134Z,101627.63
2023-06-30T03:35:54.066Z,101633.53
2023-06-30T03:38:21.033Z,101640.88
2023-06-30T03:40:48.287Z,101630.19
2023-06-30T03:43:15.283Z,101627.84
2023-06-30T03:45:43.056Z,101636.22
2023-06-30T03:48:10.619Z,101635.84
2023-06-30T03:50:37.479Z,101633.56
2023-06-30T03:53:05.304Z,101631.44
2023-06-30T03:55:32.339Z,101631.09
2023-06-30T03:57:59.408Z,101633.06
2023-06-30T04:00:26.295Z,101638.19
2023-06-30T04:02:53.278Z,101635.41
2023-06-30T04:05:20.299Z,101639.00
2023-06-30T04:07:47.396Z,101634.56
2023-06-30T04:10:14.407Z,101632.72
2023-06-30T04:12:42.967Z,101640.50
2023-06-30T04:15:11.904Z,101625.97
2023-06-30T04:17:38.947Z,101631.31
2023-06-30T04:20:11.046Z,101626.66
2023-06-30T04:22:38.794Z,101620.59
2023-06-30T04:25:06.927Z,101623.13
2023-06-30T04:27:34.047Z,101624.91
2023-06-30T04:30:01.337Z,101625.47
2023-06-30T04:32:28.384Z,101618.94
2023-06-30T04:34:55.275Z,101630.31
2023-06-30T04:37:22.350Z,101624.13
2023-06-30T04:39:49.363Z,101623.88
2023-06-30T04:42:16.410Z,101621.63
2023-06-30T04:44:43.361Z,101622.75
2023-06-30T04:47:10.325Z,101623.31
2023-06-30T04:49:37.122Z,101628.44
2023-06-30T04:52:04.304Z,101623.97
2023-06-30T04:54:32.042Z,101628.22
2023-06-30T04:56:59.145Z,101629.22
2023-06-30T04:59:26.126Z,101628.34
2023-06-30T05:01:53.039Z,101618.88
2023-06-30T05:04:20.102Z,101627.09
2023-06-30T05:06:47.081Z,101615.63
2023-06-30T05:09:14.012Z,101621.50
2023-06-30T05:11:40.955Z,101624.91
2023-06-30T05:14:07.802Z,101622.38
2023-06-30T05:16:35.115Z,101613.81
2023-06-30T05:19:02.250Z,101618.47
2023-06-30T05:21:29.320Z,101612.78
2023-06-30T05:23:56.979Z,101605.53
2023-06-30T05:26:23.882Z,101607.84
2023-06-30T05:29:03.420Z,101598.13
2023-06-30T05:31:31.056Z,101593.16
2023-06-30T05:33:58.264Z,101594.34
2023-06-30T05:36:25.314Z,101590.19
2023-06-30T05:38:52.285Z,101596.91
2023-06-30T05:41:19.282Z,101589.97
2023-06-30T05:43:46.239Z,101592.34
2023-06-30T05:46:13.271Z,101584.53
2023-06-30T05:48:40.336Z,101582.25
2023-06-30T05:51:07.183Z,101570.38
2023-06-30T05:53:34.241Z,101573.75
2023-06-30T05:56:01.136Z,101576.72
2023-06-30T05:58:28.089Z,101579.69
2023-06-30T06:00:55.280Z,101573.78
2023-06-30T06:03:22.638Z,101573.16
2023-06-30T06:05:50.229Z,101565.28
2023-06-30T06:08:17.496Z,101565.78
2023-06-30T06:10:46.768Z,101572.44
2023-06-30T06:13:13.622Z,101567.16
2023-06-30T06:15:40.674Z,101555.69
2023-06-30T06:18:07.685Z,101561.41
2023-06-30T06:20:34.680Z,101554.59
2023-06-30T06:23:01.598Z,101557.00
2023-06-30T06:25:28.581Z,101551.78
2023-06-30T06:27:55.491Z,101552.59
2023-06-30T06:30:22.442Z,101552.19
2023-06-30T06:32:49.488Z,101551.78
2023-06-30T06:35:16.399Z,101555.44
2023-06-30T06:37:43.451Z,101549.88
2023-06-30T06:40:10.908Z,101552.75
2023-06-30T06:42:37.925Z,101543.16
2023-06-30T06:45:05.291Z,101553.25
2023-06-30T06:48:09.885Z,101546.03
2023-06-30T06:50:36.772Z,101552.94
2023-06-30T06:53:03.845Z,101547.34
2023-06-30T06:55:30.924Z,101554.56
2023-06-30T06:57:57.984Z,101548.94
2023-06-30T07:00:24.893Z,101547.03
2023-06-30T07:02:53.065Z,101549.09
2023-06-30T07:05:20.010Z,101557.22
2023-06-30T07:07:47.267Z,101550.00
2023-06-30T07:10:14.195Z,101555.72
2023-06-30T07:12:41.145Z,101554.94
2023-06-30T07:15:08.749Z,101555.38
2023-06-30T07:17:35.955Z,101551.38
2023-06-30T07:20:03.329Z,101559.47
2023-06-30T07:22:30.301Z,101547.06
2023-06-30T07:24:57.320Z,101547.84
2023-06-30T07:27:24.224Z,101548.69
2023-06-30T07:29:52.031Z,101536.63
2023-06-30T07:32:19.000Z,101531.91
2023-06-30T07:34:46.033Z,101531.88
2023-06-30T07:37:12.980Z,101534.31
2023-06-30T07:39:39.959Z,101533.91
2023-06-30T07:42:07.149Z,101528.72
2023-06-30T07:44:34.956Z,101524.28
2023-06-30T07:47:01.930Z,101531.13
2023-06-30T07:49:28.917Z,101531.97
2023-06-30T07:51:56.636Z,101527.13
2023-06-30T07:54:23.587Z,101521.50
2023-06-30T07:56:50.827Z,101526.34
2023-06-30T07:59:17.897Z,101528.75
2023-06-30T08:01:45.323Z,101522.66
2023-06-30T08:04:12.672Z,101522.28
2023-06-30T08:06:39.817Z,101516.66
2023-06-30T08:09:06.712Z,101519.88
2023-06-30T08:11:33.801Z,101516.22
2023-06-30T08:14:03.362Z,101511.81
2023-06-30T08:16:30.355Z,101530.75
2023-06-30T08:18:57.420Z,101519.06
2023-06-30T08:21:25.534Z,101527.13
2023-06-30T08:23:52.885Z,101524.72
2023-06-30T08:26:19.915Z,101521.09
2023-06-30T08:28:46.911Z,101515.47
2023-06-30T08:31:14.018Z,101513.03
2023-06-30T08:33:41.453Z,101511.38
2023-06-30T08:36:08.973Z,101508.56
2023-06-30T08:38:35.925Z,101512.22
2023-06-30T08:41:04.464Z,101516.94
2023-06-30T08:43:32.737Z,101506.41
2023-06-30T08:46:02.913Z,101505.13
2023-06-30T08:48:31.709Z,101497.84
2023-06-30T08:50:59.804Z,101496.50
2023-06-30T08:53:29.021Z,101484.69
2023-06-30T08:55:58.461Z,101483.88
2023-06-30T08:58:27.563Z,101484.41
2023-06-30T09:00:55.632Z,101479.34
2023-06-30T09:03:23.840Z,101474.13
2023-06-30T09:05:56.944Z,101477.25
2023-06-30T09:08:25.228Z,101468.66
2023-06-30T09:10:52.839Z,101466.28
2023-06-30T09:13:21.788Z,101471.13
2023-06-30T09:15:49.765Z,101468.66
2023-06-30T09:18:17.220Z,101463.59
2023-06-30T09:20:44.179Z,101466.44
2023-06-30T09:23:11.156Z,101453.03
2023-06-30T09:25:38.560Z,101457.66
2023-06-30T09:28:12.090Z,101459.50
2023-06-30T09:31:00.252Z,101458.06
2023-06-30T09:33:29.965Z,101453.94
2023-06-30T09:35:57.798Z,101453.00
2023-06-30T09:38:25.841Z,101459.34
2023-06-30T09:40:53.407Z,101456.81
2023-06-30T09:43:21.906Z,101448.00
2023-06-30T09:46:01.226Z,101457.09
2023-06-30T09:48:36.576Z,101462.66
2023-06-30T09:51:03.647Z,101454.06
2023-06-30T09:53:40.262Z,101452.78
2023-06-30T09:56:08.852Z,101449.75
2023-06-30T09:58:40.829Z,101443.78
2023-06-30T10:01:08.723Z,101441.28
2023-06-30T10:03:35.865Z,101437.47
2023-06-30T10:06:03.193Z,101437.19
2023-06-30T10:08:31.285Z,101432.44
2023-06-30T10:10:58.443Z,101437.94
2023-06-30T10:13:25.676Z,101439.53
2023-06-30T10:15:52.799Z,101429.38
2023-06-30T10:18:20.066Z,101430.06
2023-06-30T10:20:49.425Z,101425.22
2023-06-30T10:23:20.609Z,101429.25
2023-06-30T10:25:48.390Z,101436.19
2023-06-30T10:28:15.922Z,101433.63
2023-06-30T10:30:43.391Z,101425.28
2023-06-30T10:33:10.444Z,101422.22
2023-06-30T10:35:38.247Z,101419.47
2023-06-30T10:38:05.355Z,101422.03
2023-06-30T10:40:32.474Z,101415.16
2023-06-30T10:42:59.839Z,101421.88
2023-06-30T10:45:32.047Z,101406.25
2023-06-30T10:47:59.230Z,101409.38
2023-06-30T10:50:26.328Z,101417.13
2023-06-30T10:52:54.809Z,101412.50
2023-06-30T10:55:23.782Z,101399.13
2023-06-30T10:57:52.698Z,101390.81
2023-06-30T11:00:22.962Z,101388.84
2023-06-30T11:02:59.623Z,101395.59
2023-06-30T11:05:34.473Z,101390.63
2023-06-30T11:08:08.699Z,101383.03
2023-06-30T11:10:46.203Z,101387.84
2023-06-30T11:13:13.449Z,101385.75
2023-06-30T11:15:43.838Z,101387.66
2023-06-30T11:18:22.361Z,101390.22
2023-06-30T11:21:00.108Z,101376.19
2023-06-30T11:23:39.239Z,101390.91
2023-06-30T11:26:17.291Z,101384.16
2023-06-30T11:28:51.215Z,101386.25
2023-06-30T11:31:18.435Z,101390.47
2023-06-30T11:33:46.216Z,101391.72
2023-06-30T11:36:14.213Z,101384.72
2023-06-30T11:38:47.785Z,101383.34
2023-06-30T11:41:22.939Z,101379.19
2023-06-30T11:43:57.278Z,101378.56
2023-06-30T11:46:24.716Z,101378.13
2023-06-30T11:48:51.770Z,101372.50
2023-06-30T11:51:18.934Z,101369.69
2023-06-30T11:53:49.689Z,101369.84
2023-06-30T11:56:20.022Z,101368.28
2023-06-30T11:58:51.552Z,101354.91
2023-06-30T12:01:21.514Z,101350.28
2023-06-30T12:04:19.733Z,101344.13
2023-06-30T12:06:47.215Z,101344.09
2023-06-30T12:09:14.311Z,101334.59
2023-06-30T12:11:48.530Z,101326.38
2023-06-30T12:14:16.843Z,101322.81
2023-06-30T12:16:45.204Z,101322.63
2023-06-30T12:19:13.889Z,101318.38
2023-06-30T12:22:01.147Z,101312.56
2023-06-30T12:24:31.929Z,101307.16
2023-06-30T12:26:59.048Z,101294.78
2023-06-30T12:29:32.865Z,101303.56
2023-06-30T12:32:00.294Z,101302.22
2023-06-30T12:34:37.571Z,101300.69
2023-06-30T12:37:04.825Z,101297.59
2023-06-30T12:39:31.942Z,101296.09
2023-06-30T12:41:59.180Z,101305.09
2023-06-30T12:44:26.543Z,101292.34
2023-06-30T12:47:04.866Z,101288.09
2023-06-30T12:49:32.029Z,101279.41
2023-06-30T12:52:01.852Z,101287.88
2023-06-30T12:54:30.853Z,101293.03
2023-06-30T12:56:57.952Z,101290.22
2023-06-30T12:59:25.048Z,101283.50
2023-06-30T13:01:52.168Z,101295.16
2023-06-30T13:04:19.269Z,101292.72
2023-06-30T13:06:46.347Z,101295.00
2023-06-30T13:09:13.397Z,101293.63
2023-06-30T13:11:40.582Z,101279.72
2023-06-30T13:14:08.084Z,101288.31
2023-06-30T13:16:35.166Z,101274.31
2023-06-30T13:19:02.627Z,101278.13
2023-06-30T13:21:31.045Z,101264.03
2023-06-30T13:23:57.977Z,101272.00
2023-06-30T13:26:25.085Z,101274.69
2023-06-30T13:28:52.016Z,101262.81
2023-06-30T13:31:19.093Z,101262.03
2023-06-30T13:33:46.069Z,101263.78
2023-06-30T13:36:14.187Z,101257.78
2023-06-30T13:38:43.558Z,101259.56
2023-06-30T13:41:11.078Z,101262.56
2023-06-30T13:43:38.187Z,101268.00
2023-06-30T13:46:05.986Z,101263.38
2023-06-30T13:48:33.478Z,101255.06
2023-06-30T13:51:00.489Z,101248.53
2023-06-30T13:53:27.489Z,101243.75
2023-06-30T13:55:54.426Z,101235.91
2023-06-30T13:58:21.331Z,101244.25
2023-06-30T14:00:48.421Z,101244.47
2023-06-30T14:03:15.885Z,101234.84
2023-06-30T14:05:43.261Z,101234.47
2023-06-30T14:08:10.343Z,101239.16
2023-06-30T14:10:37.451Z,101234.53
2023-06-30T14:13:04.645Z,101230.88
2023-06-30T14:15:32.473Z,101235.09
2023-06-30T14:17:59.752Z,101225.19
2023-06-30T14:20:26.605Z,101231.38
2023-06-30T14:22:53.896Z,101231.25
2023-06-30T14:25:22.990Z,101228.63
2023-06-30T14:27:51.162Z,101228.81
2023-06-30T14:30:18.584Z,101235.75
2023-06-30T14:32:45.928Z,101228.16
2023-06-30T14:35:14.318Z,101237.84
2023-06-30T14:37:41.335Z,101235.31
2023-06-30T14:40:08.872Z,101233.41
2023-06-30T14:42:35.861Z,101227.66
2023-06-30T14:45:03.134Z,101230.38
2023-06-30T14:47:31.018Z,101240.34
2023-06-30T14:49:58.908Z,101239.00
2023-06-30T14:52:26.052Z,101230.09
2023-06-30T14:54:53.048Z,101222.41
2023-06-30T14:57:20.085Z,101235.78
2023-06-30T14:59:47.208Z,101230.00
2023-06-30T15:02:15.605Z,101233.09
2023-06-30T15:04:42.704Z,101228.25
2023-06-30T15:07:09.836Z,101232.22
2023-06-30T15:09:36.773Z,101236.84
2023-06-30T15:12:04.332Z,101232.56
2023-06-30T15:14:31.280Z,101223.03
2023-06-30T15:16:58.175Z,101216.47
2023-06-30T15:19:25.085Z,101212.16
2023-06-30T15:21:52.519Z,101211.41
2023-06-30T15:24:19.450Z,101201.63
2023-06-30T15:26:46.302Z,101204.34
2023-06-30T15:29:13.255Z,101198.47
2023-06-30T15:31:41.042Z,101196.69
2023-06-30T15:34:08.421Z,101198.13
2023-06-30T15:36:35.363Z,101192.72
2023-06-30T15:39:02.417Z,101183.13
2023-06-30T15:41:29.274Z,101189.41
2023-06-30T15:43:56.434Z,101195.69
2023-06-30T15:46:23.408Z,101197.34
2023-06-30T15:48:50.422Z,101197.34
2023-06-30T15:51:17.366Z,101192.13
2023-06-30T15:53:44.433Z,101185.97
2023-06-30T15:56:11.719Z,101182.03
2023-06-30T15:58:38.700Z,101179.25
2023-06-30T16:01:05.727Z,101176.06
2023-06-30T16:03:32.670Z,101173.63
2023-06-30T16:05:59.909Z,101186.16
2023-06-30T16:08:26.782Z,101186.81
2023-06-30T16:10:53.774Z,101178.88
2023-06-30T16:13:20.843Z,101182.16
2023-06-30T16:15:48.209Z,101177.09
2023-06-30T16:18:15.448Z,101176.47
2023-06-30T16:20:42.522Z,101170.91
2023-06-30T16:23:09.412Z,101174.47
2023-06-30T16:25:36.362Z,101168.00
2023-06-30T16:28:03.487Z,101169.25
2023-06-30T16:30:33.706Z,101167.25
2023-06-30T16:33:01.610Z,101166.97
2023-06-30T16:35:29.344Z,101163.75
2023-06-30T16:37:58.476Z,101164.31
2023-06-30T16:40:25.596Z,101152.63
2023-06-30T16:42:52.635Z,101151.47
2023-06-30T16:45:19.947Z,101149.91
2023-06-30T16:47:47.725Z,101162.06
2023-06-30T16:50:17.159Z,101147.91
2023-06-30T16:52:44.330Z,101146.25
2023-06-30T16:55:11.738Z,101153.53
2023-06-30T16:57:39.762Z,101143.88
2023-06-30T17:00:09.706Z,101143.91
2023-06-30T17:02:38.475Z,101134.66
2023-06-30T17:05:06.818Z,101138.63
2023-06-30T17:07:34.278Z,101140.59
2023-06-30T17:10:01.278Z,101137.50
2023-06-30T17:12:28.541Z,101129.47
2023-06-30T17:14:55.588Z,101142.50
2023-06-30T17:17:25.702Z,101136.44
2023-06-30T17:19:53.397Z,101142.53
2023-06-30T17:22:20.305Z,101140.13
2023-06-30T17:24:47.329Z,101137.31
2023-06-30T17:27:14.269Z,101131.72
2023-06-30T17:29:41.465Z,101126.47
2023-06-30T17:32:09.022Z,101134.53
2023-06-30T17:34:35.897Z,101128.91
2023-06-30T17:37:11.920Z,101131.28
2023-06-30T17:39:40.686Z,101125.59
2023-06-30T17:42:08.083Z,101122.75
2023-06-30T17:44:35.113Z,101127.53
2023-06-30T17:47:02.126Z,101118.19
2023-06-30T17:49:31.692Z,101121.44
2023-06-30T17:52:00.369Z,101122.31
2023-06-30T17:54:28.513Z,101112.28
2023-06-30T17:56:56.000Z,101104.22
2023-06-30T17:59:23.213Z,101105.44
2023-06-30T18:01:50.960Z,101109.84
2023-06-30T18:04:18.209Z,101109.88
2023-06-30T18:07:13.345Z,101107.50
2023-06-30T18:09:43.587Z,101109.94
2023-06-30T18:12:11.507Z,101099.06
2023-06-30T18:14:39.920Z,101110.03
2023-06-30T18:17:07.280Z,101104.78
2023-06-30T18:19:34.317Z,101112.41
2023-06-30T18:22:01.397Z,101097.09
2023-06-30T18:24:28.465Z,101108.84
2023-06-30T18:26:55.443Z,101112.59
2023-06-30T18:29:24.083Z,101108.56
2023-06-30T18:31:52.122Z,101110.19
2023-06-30T18:34:20.422Z,101099.34
2023-06-30T18:36:47.782Z,101092.47
2023-06-30T18:39:14.938Z,101100.59
2023-06-30T18:41:41.885Z,101095.31
2023-06-30T18:44:08.847Z,101089.28
2023-06-30T18:46:36.076Z,101091.28
2023-06-30T18:49:05.351Z,101082.03
2023-06-30T18:51:33.274Z,101076.00
2023-06-30T18:54:00.265Z,101074.44
2023-06-30T18:56:30.058Z,101072.44
2023-06-30T18:59:01.674Z,101068.03
2023-06-30T19:01:29.548Z,101073.66
2023-06-30T19:03:57.163Z,101066.41
2023-06-30T19:06:25.575Z,101063.56
2023-06-30T19:08:54.602Z,101053.13
2023-06-30T19:11:22.895Z,101068.44
2023-06-30T19:13:50.240Z,101064.81
2023-06-30T19:16:18.171Z,101058.78
2023-06-30T19:18:45.592Z,101054.78
2023-06-30T19:21:12.574Z,101055.97
2023-06-30T19:23:41.939Z,101046.28
2023-06-30T19:26:09.625Z,101036.22
2023-06-30T19:28:37.405Z,101034.22
2023-06-30T19:31:04.369Z,101032.19
2023-06-30T19:33:35.192Z,101035.00
2023-06-30T19:36:02.387Z,101037.84
2023-06-30T19:38:29.621Z,101038.25
2023-06-30T19:40:56.723Z,101026.53
2023-06-30T19:43:23.865Z,101033.81
2023-06-30T19:45:51.244Z,101028.94
2023-06-30T19:48:20.118Z,101018.09
2023-06-30T19:50:47.084Z,101019.28
2023-06-30T19:53:14.290Z,101016.88
2023-06-30T19:55:41.180Z,101024.94
2023-06-30T19:58:10.694Z,101016.47
2023-06-30T20:00:38.647Z,101023.72
2023-06-30T20:03:05.993Z,101009.63
2023-06-30T20:05:33.039Z,101003.97
2023-06-30T20:07:59.916Z,101008.44
2023-06-30T20:10:26.923Z,101013.69
2023-06-30T20:12:54.332Z,101002.41
2023-06-30T20:15:21.658Z,101003.22
2023-06-30T20:17:48.979Z,100997.97
2023-06-30T20:20:16.208Z,100990.31
2023-06-30T20:22:43.209Z,100992.75
2023-06-30T20:25:11.202Z,100989.09
2023-06-30T20:27:39.683Z,100995.13
2023-06-30T20:30:09.062Z,100992.31
2023-06-30T20:32:36.267Z,100982.66
2023-06-30T20:35:04.300Z,100974.19
2023-06-30T20:37:31.394Z,100978.19
2023-06-30T20:39:58.300Z,100976.56
2023-06-30T20:42:25.207Z,100973.38
2023-06-30T20:44:52.174Z,100964.06
2023-06-30T20:47:19.233Z,100961.69
2023-06-30T20:49:46.452Z,100951.19
2023-06-30T20:52:14.621Z,100948.78
2023-06-30T20:54:41.889Z,100954.81
2023-06-30T20:57:08.958Z,100949.19
2023-06-30T20:59:35.846Z,100950.00
2023-06-30T21:02:03.321Z,100950.41
2023-06-30T21:04:30.451Z,100949.19
2023-06-30T21:06:57.490Z,100935.53
2023-06-30T21:09:24.442Z,100954.91
2023-06-30T21:11:51.546Z,100951.75
2023-06-30T21:14:21.533Z,100960.25
2023-06-30T21:16:49.320Z,100957.91
2023-06-30T21:19:16.898Z,100953.50
2023-06-30T21:21:44.106Z,100953.56
2023-06-30T21:24:11.251Z,100952.78
2023-06-30T21:26:39.003Z,100942.31
2023-06-30T21:29:06.052Z,100931.06
2023-06-30T21:31:33.071Z,100921.00
2023-06-30T21:34:00.284Z,100914.97
2023-06-30T21:36:27.375Z,100910.09
2023-06-30T21:38:54.503Z,100910.09
2023-06-30T21:41:21.392Z,100902.47
2023-06-30T21:43:48.437Z,100897.19
2023-06-30T21:46:16.500Z,100891.56
2023-06-30T21:48:43.727Z,100892.72
2023-06-30T21:51:10.751Z,100883.00
2023-06-30T21:53:37.957Z,100887.78
2023-06-30T21:56:05.218Z,100882.94
2023-06-30T21:58:32.287Z,100879.72
2023-06-30T22:00:59.416Z,100874.06
2023-06-30T22:03:27.024Z,100864.78
2023-06-30T22:05:54.096Z,100870.44
2023-06-30T22:08:21.287Z,100863.97
2023-06-30T22:10:48.500Z,100861.16
2023-06-30T22:13:15.739Z,100861.16
2023-06-30T22:15:42.737Z,100853.09
2023-06-30T22:18:10.178Z,100849.44
2023-06-30T22:20:37.474Z,100846.25
2023-06-30T22:23:04.993Z,100852.28
2023-06-30T22:25:32.067Z,100836.22
2023-06-30T22:27:59.132Z,100841.81
2023-06-30T22:30:27.336Z,100836.22
2023-06-30T22:32:54.523Z,100833.84
2023-06-30T22:35:21.881Z,100839.50
2023-06-30T22:37:48.824Z,100824.69
2023-06-30T22:40:17.617Z,100829.94
2023-06-30T22:42:44.642Z,100819.50
2023-06-30T22:45:12.734Z,100811.81
2023-06-30T22:47:39.974Z,100808.22
2023-06-30T22:50:09.699Z,100798.97
2023-06-30T22:52:37.645Z,100795.72
2023-06-30T22:55:04.881Z,100794.84
2023-06-30T22:57:31.736Z,100794.09
2023-06-30T22:59:58.593Z,100796.91
2023-06-30T23:02:25.556Z,100805.03
2023-06-30T23:04:52.587Z,100791.81
2023-06-30T23:07:20.035Z,100793.06
2023-06-30T23:09:47.058Z,100789.81
2023-06-30T23:12:13.926Z,100787.44
2023-06-30T23:14:41.129Z,100784.22
2023-06-30T23:17:16.273Z,100778.97
2023-06-30T23:19:49.391Z,100769.34
2023-06-30T23:22:17.546Z,100772.53
2023-06-30T23:24:51.277Z,100777.31
2023-06-30T23:27:19.357Z,100768.41
2023-06-30T23:29:50.363Z,100773.25
2023-06-30T23:32:21.320Z,100773.25
2023-06-30T23:34:49.064Z,100766.03
2023-06-30T23:37:20.597Z,100760.41
2023-06-30T23:39:49.574Z,100757.59
2023-06-30T23:42:16.462Z,100747.13
2023-06-30T23:44:43.305Z,100745.53
2023-06-30T23:47:15.274Z,100752.75
2023-06-30T23:49:42.690Z,100744.69
2023-06-30T23:52:10.315Z,100745.53
2023-06-30T23:54:37.315Z,100745.13
2023-06-30T23:57:05.043Z,100742.31
2023-06-30T23:59:31.955Z,100736.69
